Time;durP1;ratioP1;P1;durP2;ratioP2;P2;SDS_P1;SDS_P2;PMS_P1;PMS_P2;Temp;Humidity;BMP_temperature;BMP_pressure;BME280_temperature;BME280_humidity;BME280_pressure;Samples;Min_cycle;Max_cycle;Signal;HPM_P1;HPM_P2
2021/01/17 00:02:20;;;;;;;1.50;1.50;;;;;;;0.13;72.33;102188.94;6155103;28;20717;-70
2021/01/17 00:05:27;;;;;;;1.67;1.60;;;;;;;0.13;72.43;102191.59;6172149;28;20197;-70
2021/01/17 00:08:32;;;;;;;2.37;1.40;;;;;;;0.08;72.58;102191.09;6168659;28;20655;-71
2021/01/17 00:11:36;;;;;;;1.70;1.70;;;;;;;0.13;72.64;102188.94;6157009;28;20711;-71
2021/01/17 00:14:41;;;;;;;1.50;1.50;;;;;;;0.14;72.93;102187.94;6170397;28;20206;-70
2021/01/17 00:17:45;;;;;;;1.60;1.60;;;;;;;0.10;73.27;102194.53;6166818;28;20300;-71
2021/01/17 00:20:49;;;;;;;1.40;1.40;;;;;;;0.12;72.75;102192.56;6187541;28;20196;-70
2021/01/17 00:23:52;;;;;;;1.40;1.40;;;;;;;0.12;72.95;102187.19;6159927;28;20199;-70
2021/01/17 00:26:55;;;;;;;1.53;1.53;;;;;;;0.14;73.07;102195.97;6163107;28;20207;-71
2021/01/17 00:29:59;;;;;;;1.50;1.50;;;;;;;0.05;73.16;102191.34;6169344;28;20233;-71
2021/01/17 00:33:03;;;;;;;1.40;1.40;;;;;;;0.07;73.70;102184.88;6168511;28;20247;-71
2021/01/17 00:36:07;;;;;;;1.70;1.60;;;;;;;0.08;72.95;102191.09;6165638;28;20631;-71
2021/01/17 00:39:11;;;;;;;1.50;1.50;;;;;;;0.07;74.00;102205.47;6170909;28;20330;-73
2021/01/17 00:42:16;;;;;;;1.80;1.70;;;;;;;-0.09;73.99;102195.91;6161794;28;20203;-71
2021/01/17 00:45:23;;;;;;;1.50;1.40;;;;;;;-0.12;73.20;102196.13;6167382;28;20199;-70
2021/01/17 00:48:27;;;;;;;1.47;1.47;;;;;;;-0.11;73.31;102197.84;6147807;28;20666;-71
2021/01/17 00:51:39;;;;;;;1.70;1.60;;;;;;;0.12;73.17;102192.56;6183240;28;20204;-71
2021/01/17 00:54:42;;;;;;;1.80;1.80;;;;;;;0.05;73.60;102191.34;6141534;28;20423;-71
2021/01/17 00:57:45;;;;;;;1.87;1.87;;;;;;;0.08;73.43;102201.84;6145923;28;20201;-70
2021/01/17 01:00:49;;;;;;;1.60;1.60;;;;;;;0.04;75.15;102194.97;6149520;28;20209;-69
2021/01/17 01:04:03;;;;;;;2.00;2.00;;;;;;;0.00;74.19;102200.56;6131289;28;20295;-73
2021/01/17 01:07:06;;;;;;;2.03;2.00;;;;;;;0.12;74.58;102197.94;6149523;28;20272;-72
2021/01/17 01:10:11;;;;;;;2.20;2.10;;;;;;;0.09;75.77;102198.16;6157228;28;20205;-72
2021/01/17 01:13:14;;;;;;;2.13;2.13;;;;;;;0.17;75.46;102187.69;6153473;28;20306;-72
2021/01/17 01:16:18;;;;;;;2.40;2.20;;;;;;;0.15;74.82;102182.47;6160538;28;20227;-69
2021/01/17 01:19:22;;;;;;;2.57;2.53;;;;;;;0.14;74.79;102186.09;6152551;28;20193;-70
2021/01/17 01:22:25;;;;;;;2.50;2.40;;;;;;;0.04;75.85;102184.25;6163230;28;20339;-70
2021/01/17 01:25:29;;;;;;;2.43;2.33;;;;;;;0.00;76.15;102179.09;6153023;28;20221;-70
2021/01/17 01:28:32;;;;;;;2.13;2.13;;;;;;;0.12;75.51;102184.50;6148113;28;20206;-70
2021/01/17 01:31:37;;;;;;;2.23;2.23;;;;;;;0.16;75.54;102177.94;6139905;29;20199;-71
2021/01/17 01:34:41;;;;;;;2.70;2.60;;;;;;;0.16;75.01;102177.94;6139133;29;20207;-70
2021/01/17 01:37:44;;;;;;;2.60;2.50;;;;;;;-0.04;75.41;102192.88;6142023;29;20221;-73
2021/01/17 01:40:52;;;;;;;2.43;2.33;;;;;;;-0.05;75.76;102180.41;6140016;29;20576;-70
2021/01/17 01:43:56;;;;;;;2.10;2.10;;;;;;;-0.32;76.47;102180.69;6135263;29;20212;-70
2021/01/17 01:47:01;;;;;;;2.53;2.40;;;;;;;-0.17;76.08;102182.22;6127358;29;20196;-71
2021/01/17 01:50:07;;;;;;;1.70;1.70;;;;;;;-0.28;76.58;102183.97;6140159;29;20196;-69
2021/01/17 01:53:10;;;;;;;1.30;1.30;;;;;;;-0.51;75.89;102182.16;6138949;29;20320;-70
2021/01/17 01:56:14;;;;;;;1.60;1.60;;;;;;;-0.30;76.83;102181.41;6139533;29;20644;-70
2021/01/17 01:59:18;;;;;;;1.67;1.67;;;;;;;-0.13;74.94;102182.84;6140002;29;20206;-70
2021/01/17 02:02:22;;;;;;;1.60;1.60;;;;;;;-0.08;75.05;102176.13;6123264;29;20289;-71
2021/01/17 02:05:25;;;;;;;1.37;1.37;;;;;;;-0.03;75.75;102176.66;6125724;29;20723;-70
2021/01/17 02:09:01;;;;;;;1.77;1.73;;;;;;;-0.12;76.21;102174.69;6137865;29;20248;-70
2021/01/17 02:12:14;;;;;;;1.63;1.53;;;;;;;-0.08;75.22;102173.47;6133816;29;20201;-70
2021/01/17 02:15:25;;;;;;;1.60;1.60;;;;;;;-0.18;75.70;102175.13;6135984;28;20303;-70
2021/01/17 02:18:30;;;;;;;1.40;1.40;;;;;;;-0.28;75.42;102173.25;6143710;29;20306;-71
2021/01/17 02:21:37;;;;;;;1.50;1.50;;;;;;;-0.14;75.22;102165.91;6136962;29;20200;-71
2021/01/17 02:24:50;;;;;;;1.87;1.77;;;;;;;0.06;74.65;102172.41;6131722;29;20207;-71
2021/01/17 02:27:55;;;;;;;1.70;1.70;;;;;;;0.14;74.56;102170.00;6142629;28;20200;-71
2021/01/17 02:31:00;;;;;;;2.07;1.80;;;;;;;0.11;73.64;102175.59;6136538;28;20568;-71
2021/01/17 02:34:04;;;;;;;1.73;1.63;;;;;;;0.03;74.75;102171.81;6129631;28;20646;-70
2021/01/17 02:37:21;;;;;;;3.50;1.70;;;;;;;-0.01;75.09;102172.03;6131488;28;20767;-72
2021/01/17 02:40:41;;;;;;;2.43;2.13;;;;;;;-0.39;76.91;102167.84;6133198;29;20354;-71
2021/01/17 02:43:46;;;;;;;2.83;2.73;;;;;;;-0.74;78.13;102170.44;6137909;29;20212;-70
2021/01/17 02:46:49;;;;;;;4.20;3.10;;;;;;;-0.55;79.32;102173.50;6131631;29;20960;-74
2021/01/17 02:49:53;;;;;;;2.53;2.53;;;;;;;-0.55;79.48;102160.09;6134623;28;20229;-71
2021/01/17 02:53:02;;;;;;;3.10;2.90;;;;;;;-0.59;78.78;102163.94;6135587;28;20248;-71
2021/01/17 02:56:12;;;;;;;2.93;2.83;;;;;;;-0.60;79.37;102161.38;6136049;28;20464;-71
2021/01/17 02:59:17;;;;;;;2.40;2.30;;;;;;;-0.62;78.96;102169.56;6147807;28;20198;-71
2021/01/17 03:02:26;;;;;;;2.57;2.47;;;;;;;-0.88;80.18;102167.91;6130331;29;20252;-72
2021/01/17 03:05:29;;;;;;;4.53;4.07;;;;;;;-0.92;80.30;102166.41;6131385;29;20196;-70
2021/01/17 03:08:34;;;;;;;2.50;2.30;;;;;;;-0.89;81.39;102161.69;6131481;29;20200;-71
2021/01/17 03:11:38;;;;;;;2.60;2.30;;;;;;;-0.73;81.00;102170.34;6140013;29;20222;-74
2021/01/17 03:14:43;;;;;;;2.10;2.10;;;;;;;-0.70;81.25;102161.22;6132203;28;20223;-72
2021/01/17 03:17:47;;;;;;;2.17;1.83;;;;;;;-0.63;80.66;102162.47;6133875;28;20569;-74
2021/01/17 03:20:50;;;;;;;2.13;1.63;;;;;;;-0.60;80.35;102162.25;6145016;28;20213;-70
2021/01/17 03:23:54;;;;;;;1.80;1.77;;;;;;;-0.63;80.35;102167.84;6142821;28;20201;-70
2021/01/17 03:26:58;;;;;;;1.73;1.73;;;;;;;-0.71;79.33;102154.13;6128643;28;20212;-71
2021/01/17 03:30:01;;;;;;;1.57;1.50;;;;;;;-0.82;79.91;102151.38;6143975;28;20326;-70
2021/01/17 03:33:05;;;;;;;1.60;1.50;;;;;;;-0.82;80.84;102151.38;6117720;29;20741;-70
2021/01/17 03:36:10;;;;;;;1.73;1.63;;;;;;;-0.84;81.38;102153.31;6131682;28;20604;-71
2021/01/17 03:39:13;;;;;;;2.00;2.00;;;;;;;-0.54;81.32;102145.72;6123339;29;20283;-71
2021/01/17 03:42:17;;;;;;;1.70;1.70;;;;;;;-0.59;80.83;102137.13;6138453;29;20250;-71
2021/01/17 03:45:21;;;;;;;1.77;1.77;;;;;;;-0.56;81.00;102142.28;6141225;28;20203;-72
2021/01/17 03:48:25;;;;;;;2.47;2.37;;;;;;;-0.52;80.58;102138.41;6145356;29;20225;-73
2021/01/17 03:51:28;;;;;;;2.07;2.07;;;;;;;-0.74;80.85;102138.28;6143778;28;20199;-70
2021/01/17 03:54:31;;;;;;;2.13;2.03;;;;;;;-0.45;81.76;102139.66;6143252;28;20225;-71
2021/01/17 03:57:35;;;;;;;1.90;1.80;;;;;;;-0.27;80.00;102138.28;6147539;28;20239;-71
2021/01/17 04:00:38;;;;;;;1.73;1.73;;;;;;;-0.18;78.90;102142.94;6134282;29;20655;-71
2021/01/17 04:03:41;;;;;;;1.63;1.63;;;;;;;-0.11;79.06;102149.56;6136434;28;20200;-71
2021/01/17 04:06:45;;;;;;;1.50;1.50;;;;;;;-0.05;78.64;102143.72;6130607;28;20707;-71
2021/01/17 04:09:48;;;;;;;1.80;1.70;;;;;;;-0.15;79.00;102131.97;6145242;29;20524;-71
2021/01/17 04:12:52;;;;;;;1.80;1.80;;;;;;;-0.52;79.45;102143.78;6138259;29;20220;-71
2021/01/17 04:15:56;;;;;;;2.07;2.07;;;;;;;-0.67;80.50;102136.88;6137981;28;20194;-71
2021/01/17 04:18:59;;;;;;;2.13;2.13;;;;;;;-0.47;80.97;102133.56;6136130;29;20229;-70
2021/01/17 04:22:04;;;;;;;1.93;1.93;;;;;;;-0.37;81.28;102126.53;6141350;29;20227;-71
2021/01/17 04:25:08;;;;;;;2.07;2.07;;;;;;;-0.19;80.00;102135.88;6131949;29;20203;-71
2021/01/17 04:28:14;;;;;;;1.97;1.97;;;;;;;-0.09;79.05;102134.19;6137212;29;20200;-72
2021/01/17 04:31:17;;;;;;;1.80;1.80;;;;;;;-0.04;79.10;102123.97;6137070;29;20563;-71
2021/01/17 04:34:22;;;;;;;2.23;2.13;;;;;;;-0.09;79.72;102128.84;6142935;29;20234;-70
2021/01/17 04:37:26;;;;;;;2.00;1.90;;;;;;;-0.21;80.34;102126.25;6136261;28;20665;-71
2021/01/17 04:40:30;;;;;;;1.93;1.90;;;;;;;-0.16;79.98;102124.91;6131927;28;20256;-71
2021/01/17 04:43:40;;;;;;;2.03;2.03;;;;;;;-0.13;80.07;102130.03;6138408;28;20586;-70
2021/01/17 04:46:44;;;;;;;1.90;1.90;;;;;;;-0.09;80.06;102120.78;6128259;28;20192;-71
2021/01/17 04:49:53;;;;;;;2.10;2.10;;;;;;;-0.04;79.43;102129.34;6117839;28;20212;-70
2021/01/17 04:53:00;;;;;;;2.20;2.00;;;;;;;-0.07;79.62;102124.19;6149301;28;20269;-70
2021/01/17 04:56:24;;;;;;;2.40;2.30;;;;;;;-0.03;79.51;102139.09;6115745;29;20212;-71
2021/01/17 04:59:36;;;;;;;2.13;2.13;;;;;;;-0.11;79.88;102144.22;6128189;29;20201;-70
2021/01/17 05:02:48;;;;;;;2.83;2.30;;;;;;;-0.14;80.73;102141.75;6128937;28;20211;-70
2021/01/17 05:06:00;;;;;;;3.53;2.53;;;;;;;-0.16;80.94;102138.34;6139764;29;20279;-70
2021/01/17 05:09:05;;;;;;;2.10;2.10;;;;;;;-0.20;80.80;102136.84;6131095;29;20209;-71
2021/01/17 05:12:12;;;;;;;2.57;2.37;;;;;;;-0.19;81.00;102141.25;6133050;29;20193;-70
2021/01/17 05:15:20;;;;;;;2.10;2.00;;;;;;;-0.16;80.74;102141.00;6142600;28;20220;-70
2021/01/17 05:18:24;;;;;;;2.30;2.10;;;;;;;-0.18;80.01;102132.19;6139790;29;20194;-70
2021/01/17 05:21:29;;;;;;;2.50;2.40;;;;;;;-0.13;80.11;102140.75;6131710;29;20236;-71
2021/01/17 05:24:35;;;;;;;2.27;2.23;;;;;;;-0.13;79.86;102140.75;6135503;28;20671;-72
2021/01/17 05:27:39;;;;;;;2.30;2.20;;;;;;;-0.14;79.97;102139.06;6128830;28;20397;-71
2021/01/17 05:30:48;;;;;;;2.53;2.43;;;;;;;-0.25;81.01;102141.69;6140068;29;20204;-71
2021/01/17 05:33:51;;;;;;;2.33;2.33;;;;;;;-0.10;80.40;102150.41;6147357;28;20216;-72
2021/01/17 05:37:03;;;;;;;2.50;2.40;;;;;;;-0.09;80.33;102150.31;6143580;28;20228;-72
2021/01/17 05:40:07;;;;;;;2.37;2.37;;;;;;;-0.10;80.40;102143.22;6139065;29;20234;-72
2021/01/17 05:43:10;;;;;;;2.50;2.40;;;;;;;-0.12;80.10;102133.56;6143800;29;20627;-71
2021/01/17 05:46:14;;;;;;;2.80;2.70;;;;;;;-0.08;80.09;102143.94;6138001;28;20692;-71
2021/01/17 05:49:18;;;;;;;2.50;2.40;;;;;;;-0.09;80.28;102131.53;6138677;29;20205;-72
2021/01/17 05:52:21;;;;;;;2.50;2.50;;;;;;;-0.08;80.39;102135.91;6150150;28;20215;-71
2021/01/17 05:55:31;;;;;;;2.73;2.60;;;;;;;-0.04;80.09;102134.72;6139413;28;20521;-69
2021/01/17 05:58:34;;;;;;;2.77;2.60;;;;;;;-0.07;80.64;102137.63;6132682;29;20288;-70
2021/01/17 06:01:39;;;;;;;2.80;2.80;;;;;;;-0.06;80.87;102142.03;6134686;28;20212;-71
2021/01/17 06:04:44;;;;;;;2.90;2.70;;;;;;;-0.11;80.77;102138.84;6139471;29;20198;-70
2021/01/17 06:07:48;;;;;;;2.90;2.80;;;;;;;-0.09;80.43;102142.25;6136002;28;20591;-70
2021/01/17 06:10:54;;;;;;;2.63;2.63;;;;;;;-0.14;80.99;102135.53;6130314;29;20200;-72
2021/01/17 06:13:58;;;;;;;3.17;3.07;;;;;;;-0.11;81.14;102138.84;6141806;28;20219;-71
2021/01/17 06:17:03;;;;;;;3.03;2.93;;;;;;;-0.17;81.64;102139.28;6140183;28;20640;-70
2021/01/17 06:20:08;;;;;;;3.33;2.90;;;;;;;-0.09;81.21;102134.19;6144619;28;20199;-70
2021/01/17 06:23:34;;;;;;;3.77;3.47;;;;;;;-0.11;81.25;102138.84;6130647;29;20253;-70
2021/01/17 06:26:39;;;;;;;3.80;3.47;;;;;;;-0.15;81.78;102142.72;6124855;29;20199;-70
2021/01/17 06:29:43;;;;;;;3.80;3.60;;;;;;;-0.05;82.01;102143.72;6135549;29;20281;-71
2021/01/17 06:32:49;;;;;;;3.83;3.40;;;;;;;-0.13;81.92;102146.13;6123714;28;20264;-71
2021/01/17 06:35:52;;;;;;;3.70;3.50;;;;;;;-0.07;81.96;102153.72;6133584;28;20238;-73
2021/01/17 06:38:55;;;;;;;3.67;3.50;;;;;;;-0.37;82.67;102149.81;6135851;28;20224;-71
2021/01/17 06:41:59;;;;;;;3.53;3.33;;;;;;;-0.45;83.56;102150.38;6128934;29;20212;-72
2021/01/17 06:45:15;;;;;;;3.83;3.63;;;;;;;-0.21;83.47;102148.56;6120950;29;20205;-71
2021/01/17 06:48:24;;;;;;;3.53;3.23;;;;;;;-0.15;82.27;102149.91;6129529;29;20256;-71
2021/01/17 06:51:29;;;;;;;3.77;3.43;;;;;;;-0.10;81.96;102155.75;6125970;29;20705;-71
2021/01/17 06:54:34;;;;;;;3.27;3.13;;;;;;;-0.25;82.55;102147.06;6142892;28;20210;-71
2021/01/17 06:57:38;;;;;;;4.23;3.00;;;;;;;-0.30;82.72;102162.66;6157371;28;20276;-70
2021/01/17 07:00:41;;;;;;;3.37;3.17;;;;;;;-0.25;82.85;102163.16;6134271;29;20200;-71
2021/01/17 07:04:02;;;;;;;3.20;3.10;;;;;;;-0.14;82.24;102163.22;6133967;29;20192;-70
2021/01/17 07:07:27;;;;;;;2.80;2.70;;;;;;;-0.11;81.87;102162.97;6127085;28;20203;-70
2021/01/17 07:10:40;;;;;;;3.00;2.90;;;;;;;-0.05;81.39;102170.53;6124814;29;20653;-71
2021/01/17 07:13:47;;;;;;;2.60;2.60;;;;;;;-0.04;80.87;102172.28;6142322;28;20221;-70
2021/01/17 07:16:55;;;;;;;2.70;2.60;;;;;;;-0.08;81.04;102170.78;6139079;28;20185;-71
2021/01/17 07:20:05;;;;;;;3.17;3.00;;;;;;;-0.10;81.90;102171.84;6126170;29;20578;-71
2021/01/17 07:23:10;;;;;;;3.83;2.70;;;;;;;-0.44;82.33;102170.88;6125270;28;20416;-70
2021/01/17 07:26:15;;;;;;;3.20;3.00;;;;;;;-0.41;81.61;102167.94;6155156;28;20705;-74
2021/01/17 07:29:19;;;;;;;3.07;2.97;;;;;;;-0.25;81.37;102165.84;6149251;28;20253;-71
2021/01/17 07:32:33;;;;;;;2.33;2.30;;;;;;;-0.37;81.40;102168.59;6133988;28;20591;-71
2021/01/17 07:35:39;;;;;;;3.13;3.03;;;;;;;-0.26;81.02;102164.16;6129658;28;20221;-71
2021/01/17 07:38:45;;;;;;;2.37;2.37;;;;;;;-0.08;80.32;102170.78;6129844;28;20248;-72
2021/01/17 07:41:49;;;;;;;2.60;2.50;;;;;;;-0.09;80.66;102163.72;6103480;29;20258;-71
2021/01/17 07:44:55;;;;;;;2.70;2.60;;;;;;;-0.05;80.79;102165.19;6114298;29;20202;-71
2021/01/17 07:48:06;;;;;;;2.77;2.70;;;;;;;-0.06;80.80;102168.00;6110934;29;22109;-71
2021/01/17 07:51:12;;;;;;;2.90;2.70;;;;;;;-0.07;80.73;102167.13;6114940;29;20200;-74
2021/01/17 07:54:20;;;;;;;3.07;2.90;;;;;;;-0.05;80.59;102175.91;6105063;29;20214;-71
2021/01/17 07:57:25;;;;;;;2.93;2.73;;;;;;;-0.03;80.17;102173.97;6114508;29;20291;-70
2021/01/17 08:00:28;;;;;;;3.10;2.80;;;;;;;0.05;79.80;102169.88;6104199;29;20201;-74
2021/01/17 08:03:33;;;;;;;2.67;2.50;;;;;;;0.05;79.03;102176.09;6101690;29;20269;-71
2021/01/17 08:06:48;;;;;;;3.00;2.80;;;;;;;-0.06;80.02;102174.22;6116973;29;20205;-72
2021/01/17 08:09:51;;;;;;;2.80;2.70;;;;;;;-0.31;80.57;102179.69;6114079;29;20697;-70
2021/01/17 08:12:57;;;;;;;2.63;2.53;;;;;;;-0.24;80.32;102180.09;6112808;29;20989;-71
2021/01/17 08:16:08;;;;;;;2.70;2.60;;;;;;;-0.46;80.12;102185.38;6108033;29;20225;-71
2021/01/17 08:19:35;;;;;;;2.67;2.63;;;;;;;-0.24;80.50;102185.47;6104948;29;20252;-70
2021/01/17 08:22:44;;;;;;;7.60;3.40;;;;;;;-0.20;81.33;102187.81;6099687;29;20237;-71
2021/01/17 08:25:58;;;;;;;3.60;2.80;;;;;;;0.00;80.41;102189.84;6115049;29;20206;-71
2021/01/17 08:29:02;;;;;;;2.87;2.70;;;;;;;-0.01;79.31;102188.16;6115118;29;20284;-72
2021/01/17 08:32:29;;;;;;;3.20;3.10;;;;;;;-0.12;80.37;102189.91;6112022;29;20193;-73
2021/01/17 08:35:34;;;;;;;2.80;2.70;;;;;;;-0.25;80.20;102187.28;6109046;29;20233;-71
2021/01/17 08:38:38;;;;;;;2.97;2.77;;;;;;;-0.03;80.18;102199.97;6113860;29;20216;-70
2021/01/17 08:41:41;;;;;;;3.10;3.00;;;;;;;0.10;79.53;102205.25;6134112;28;20226;-70
2021/01/17 08:44:44;;;;;;;2.90;2.80;;;;;;;0.14;79.40;102201.34;6138548;28;20211;-70
2021/01/17 08:47:49;;;;;;;3.27;3.07;;;;;;;0.12;79.35;102203.31;6129197;29;20204;-70
2021/01/17 08:50:54;;;;;;;3.07;2.87;;;;;;;0.15;79.13;102203.94;6133900;29;20207;-69
2021/01/17 08:54:21;;;;;;;3.37;3.17;;;;;;;0.18;79.37;102203.69;6127969;29;20209;-69
2021/01/17 08:57:38;;;;;;;3.27;3.17;;;;;;;0.23;79.35;102214.09;6130232;29;20496;-69
2021/01/17 09:01:03;;;;;;;3.70;3.50;;;;;;;0.18;79.68;102221.63;6136858;28;20203;-72
2021/01/17 09:04:08;;;;;;;3.70;3.50;;;;;;;0.22;80.09;102220.41;6127057;29;20723;-71
2021/01/17 09:07:33;;;;;;;3.63;3.33;;;;;;;0.26;79.46;102213.81;6136387;28;20208;-72
2021/01/17 09:10:37;;;;;;;3.33;3.13;;;;;;;0.27;79.32;102218.22;6129381;29;20214;-72
2021/01/17 09:13:40;;;;;;;3.43;3.17;;;;;;;0.32;79.27;102216.06;6134328;28;20203;-73
2021/01/17 09:16:47;;;;;;;3.40;3.30;;;;;;;0.12;79.44;102214.03;6134038;29;20255;-72
2021/01/17 09:19:55;;;;;;;3.60;3.40;;;;;;;0.27;79.12;102218.22;6134827;28;20245;-73
2021/01/17 09:22:59;;;;;;;6.83;3.53;;;;;;;0.22;79.49;102215.03;6133729;28;20225;-71
2021/01/17 09:26:04;;;;;;;3.10;3.00;;;;;;;0.25;79.49;102221.06;6128001;29;20700;-71
2021/01/17 09:29:08;;;;;;;3.30;3.13;;;;;;;-0.03;79.49;102216.88;6140116;28;20200;-71
2021/01/17 09:32:15;;;;;;;2.90;2.70;;;;;;;-0.24;79.86;102215.84;6134284;28;20208;-73
2021/01/17 09:35:21;;;;;;;1.97;1.97;;;;;;;-0.23;78.44;102222.91;6130386;29;20218;-74
2021/01/17 09:38:25;;;;;;;1.80;1.80;;;;;;;-0.20;76.83;102230.72;6140829;28;20742;-71
2021/01/17 09:41:29;;;;;;;1.40;1.40;;;;;;;-0.31;76.55;102227.13;6131677;29;20330;-71
2021/01/17 09:44:33;;;;;;;1.20;1.20;;;;;;;-0.39;74.99;102219.66;6138892;28;20235;-71
2021/01/17 09:47:37;;;;;;;1.20;1.20;;;;;;;-0.39;74.78;102214.28;6134022;28;20647;-70
2021/01/17 09:50:40;;;;;;;0.93;0.93;;;;;;;-0.25;75.10;102219.47;6132103;29;20601;-69
2021/01/17 09:53:46;;;;;;;0.90;0.90;;;;;;;-0.10;73.53;102221.00;6146023;28;20267;-70
2021/01/17 09:56:50;;;;;;;0.73;0.73;;;;;;;-0.13;73.11;102210.50;6147213;28;20212;-72
2021/01/17 09:59:55;;;;;;;0.80;0.80;;;;;;;-0.05;72.71;102224.22;6139660;28;20212;-72
2021/01/17 10:02:58;;;;;;;0.90;0.90;;;;;;;-0.31;72.51;102211.88;6139722;28;20206;-71
2021/01/17 10:06:01;;;;;;;0.93;0.93;;;;;;;0.06;74.11;102203.75;6135973;29;20733;-72
2021/01/17 10:09:15;;;;;;;0.70;0.70;;;;;;;-0.07;72.84;102215.41;6128704;29;20217;-72
2021/01/17 10:12:20;;;;;;;1.23;1.23;;;;;;;-0.03;70.63;102216.06;6132085;28;20287;-74
2021/01/17 10:15:25;;;;;;;1.40;1.40;;;;;;;0.05;70.90;102210.13;6137409;28;20229;-73
2021/01/17 10:18:29;;;;;;;1.20;1.20;;;;;;;0.31;72.32;102214.38;6142308;29;20256;-72
2021/01/17 10:21:38;;;;;;;0.90;0.90;;;;;;;0.52;70.72;102212.69;6124606;29;20315;-71
2021/01/17 10:24:42;;;;;;;0.70;0.70;;;;;;;0.61;70.73;102206.59;6144176;28;20228;-73
2021/01/17 10:27:47;;;;;;;2.17;0.80;;;;;;;0.64;70.27;102209.88;6137810;28;20677;-73
2021/01/17 10:30:56;;;;;;;0.80;0.80;;;;;;;0.63;70.64;102204.66;6141524;29;20545;-71
2021/01/17 10:33:59;;;;;;;0.80;0.80;;;;;;;0.76;70.23;102205.41;6130479;29;20213;-75
2021/01/17 10:37:05;;;;;;;1.17;1.00;;;;;;;0.57;71.40;102200.63;6135103;28;20630;-72
2021/01/17 10:40:11;;;;;;;0.80;0.80;;;;;;;0.41;71.55;102197.41;6129455;29;20588;-72
2021/01/17 10:43:26;;;;;;;1.83;1.50;;;;;;;0.51;72.50;102200.25;6132191;28;20681;-72
2021/01/17 10:46:31;;;;;;;2.20;2.20;;;;;;;0.64;73.31;102201.00;6125845;29;20222;-71
2021/01/17 10:49:39;;;;;;;2.47;2.37;;;;;;;0.11;74.52;102190.84;6126729;29;20206;-73
2021/01/17 10:52:50;;;;;;;2.27;2.20;;;;;;;0.42;75.24;102192.88;6126007;29;20588;-72
2021/01/17 10:55:55;;;;;;;2.87;2.67;;;;;;;0.56;75.17;102193.56;6131713;28;20230;-72
2021/01/17 10:59:01;;;;;;;3.20;3.00;;;;;;;0.58;75.25;102185.34;6132691;29;20672;-72
2021/01/17 11:02:06;;;;;;;3.13;3.03;;;;;;;0.66;74.69;102192.81;6132100;28;20209;-73
2021/01/17 11:05:11;;;;;;;3.00;2.80;;;;;;;0.62;74.05;102186.81;6124017;28;20202;-73
2021/01/17 11:08:15;;;;;;;3.00;2.90;;;;;;;0.65;74.51;102186.56;6130114;29;20241;-72
2021/01/17 11:11:18;;;;;;;3.07;2.97;;;;;;;0.64;75.28;102195.63;6130448;29;20733;-73
2021/01/17 11:14:27;;;;;;;3.07;2.97;;;;;;;0.63;75.71;102189.41;6143699;28;20199;-74
2021/01/17 11:17:30;;;;;;;4.53;3.37;;;;;;;0.53;75.68;102195.59;6126984;29;20220;-73
2021/01/17 11:20:35;;;;;;;4.17;3.87;;;;;;;0.41;75.93;102188.50;6123549;29;20224;-70
2021/01/17 11:23:38;;;;;;;3.57;3.30;;;;;;;0.43;77.08;102194.63;6130039;29;20208;-72
2021/01/17 11:26:42;;;;;;;3.77;3.47;;;;;;;0.47;76.54;102193.38;6135534;29;20206;-72
2021/01/17 11:29:48;;;;;;;2.90;2.70;;;;;;;0.50;77.01;102182.41;6136644;29;20199;-73
2021/01/17 11:32:52;;;;;;;2.57;2.47;;;;;;;0.60;76.17;102178.03;6131404;28;20204;-71
2021/01/17 11:36:02;;;;;;;2.30;2.20;;;;;;;0.57;76.21;102178.25;6128278;29;20219;-72
2021/01/17 11:39:06;;;;;;;2.67;2.47;;;;;;;0.60;75.70;102178.03;6118113;29;20235;-72
2021/01/17 11:42:17;;;;;;;2.50;2.40;;;;;;;0.57;75.26;102178.25;6122657;29;20204;-72
2021/01/17 11:45:22;;;;;;;3.17;2.87;;;;;;;0.58;75.99;102174.63;6140706;29;20195;-72
2021/01/17 11:48:31;;;;;;;2.27;2.27;;;;;;;0.50;75.50;102177.91;6135408;29;20199;-72
2021/01/17 11:51:36;;;;;;;2.50;2.40;;;;;;;0.57;75.19;102172.88;6123226;29;20217;-72
2021/01/17 11:54:39;;;;;;;2.23;2.13;;;;;;;0.75;74.90;102178.63;6140576;29;20205;-72
2021/01/17 11:57:43;;;;;;;2.00;1.90;;;;;;;0.82;75.19;102175.38;6134839;29;20535;-74
2021/01/17 12:00:52;;;;;;;2.57;2.47;;;;;;;0.79;75.15;102170.25;6141270;29;20207;-71
2021/01/17 12:04:01;;;;;;;2.30;2.30;;;;;;;0.89;74.85;102168.53;6141386;29;20246;-71
2021/01/17 12:07:06;;;;;;;2.50;2.40;;;;;;;0.91;75.13;102176.47;6145671;28;20219;-72
2021/01/17 12:10:11;;;;;;;2.67;2.50;;;;;;;0.86;75.48;102168.78;6145639;29;20467;-74
2021/01/17 12:13:14;;;;;;;2.40;2.30;;;;;;;0.92;75.09;102168.28;6131104;28;20206;-72
2021/01/17 12:16:30;;;;;;;2.50;2.40;;;;;;;1.01;74.98;102164.00;6129464;29;20661;-74
2021/01/17 12:19:36;;;;;;;2.50;2.40;;;;;;;0.94;75.00;102171.69;6140120;29;20211;-73
2021/01/17 12:22:40;;;;;;;2.30;2.20;;;;;;;0.99;74.83;102164.13;6146357;29;20210;-72
2021/01/17 12:25:43;;;;;;;2.43;2.33;;;;;;;0.87;75.78;102165.13;6137962;28;20284;-73
2021/01/17 12:28:47;;;;;;;2.20;2.10;;;;;;;0.80;76.08;102152.25;6141609;29;20202;-72
2021/01/17 12:31:54;;;;;;;2.40;2.30;;;;;;;0.85;76.74;102150.94;6132589;29;20282;-73
2021/01/17 12:34:57;;;;;;;2.20;2.20;;;;;;;0.88;75.83;102155.19;6133005;28;20286;-72
2021/01/17 12:38:00;;;;;;;3.87;2.30;;;;;;;0.84;76.27;102148.38;6134447;29;20256;-72
2021/01/17 12:41:08;;;;;;;1.80;1.80;;;;;;;0.86;76.36;102152.66;6136632;29;20227;-73
2021/01/17 12:44:14;;;;;;;2.20;2.10;;;;;;;0.77;75.97;102148.00;6132555;29;20211;-72
2021/01/17 12:47:19;;;;;;;2.70;2.47;;;;;;;0.75;76.23;102143.72;6136911;28;20270;-73
2021/01/17 12:50:23;;;;;;;2.50;2.40;;;;;;;0.87;76.30;102138.25;6133745;29;20210;-75
2021/01/17 12:53:26;;;;;;;3.90;2.53;;;;;;;0.61;77.51;102144.84;6132426;29;20687;-74
2021/01/17 12:56:29;;;;;;;2.37;2.20;;;;;;;0.66;77.10;102134.56;6139642;29;20240;-73
2021/01/17 12:59:32;;;;;;;2.50;2.40;;;;;;;0.76;76.82;102135.56;6133955;29;20286;-71
2021/01/17 13:02:40;;;;;;;2.73;2.07;;;;;;;0.68;77.80;102129.94;6133632;29;20253;-73
2021/01/17 13:05:47;;;;;;;2.00;1.93;;;;;;;0.55;77.86;102137.25;6137517;29;20209;-73
2021/01/17 13:08:50;;;;;;;2.47;2.20;;;;;;;0.63;78.11;102129.44;6131890;29;20212;-74
2021/01/17 13:11:53;;;;;;;2.13;2.13;;;;;;;0.46;78.36;102127.25;6132218;29;20278;-76
2021/01/17 13:14:56;;;;;;;3.80;2.50;;;;;;;0.53;79.55;102128.47;6143999;28;20203;-73
2021/01/17 13:18:00;;;;;;;2.30;2.20;;;;;;;0.61;78.76;102120.66;6124489;29;20642;-72
2021/01/17 13:21:04;;;;;;;1.73;1.63;;;;;;;0.54;78.99;102120.28;6126096;28;20202;-73
2021/01/17 13:24:08;;;;;;;2.20;2.10;;;;;;;0.61;79.25;102131.41;6126571;28;20802;-72
2021/01/17 13:27:11;;;;;;;2.03;2.03;;;;;;;0.44;80.63;102130.03;6133236;28;20198;-73
2021/01/17 13:30:15;;;;;;;2.97;2.37;;;;;;;0.62;80.01;102133.09;6133103;29;20742;-73
2021/01/17 13:33:20;;;;;;;2.40;2.30;;;;;;;0.65;79.59;102127.50;6128200;29;20207;-73
2021/01/17 13:36:23;;;;;;;2.30;2.20;;;;;;;0.69;79.63;102128.97;6131159;29;20645;-72
2021/01/17 13:39:27;;;;;;;2.30;2.20;;;;;;;0.66;79.62;102115.78;6133405;29;20291;-73
2021/01/17 13:42:30;;;;;;;2.33;2.23;;;;;;;0.67;79.92;102122.84;6130235;29;20446;-71
2021/01/17 13:45:33;;;;;;;2.57;2.40;;;;;;;0.65;80.23;102127.50;6138667;28;20203;-72
2021/01/17 13:48:38;;;;;;;2.47;2.37;;;;;;;0.69;80.06;102118.22;6133624;29;20202;-72
2021/01/17 13:51:41;;;;;;;2.40;2.20;;;;;;;0.59;79.98;102122.63;6136128;29;20326;-73
2021/01/17 13:54:44;;;;;;;2.40;2.30;;;;;;;0.45;81.24;102115.66;6131544;29;20259;-72
2021/01/17 13:57:47;;;;;;;2.70;2.60;;;;;;;0.50;81.00;102124.19;6128931;28;20210;-73
2021/01/17 14:00:50;;;;;;;3.07;2.80;;;;;;;0.58;80.32;102115.53;6130350;28;20203;-74
2021/01/17 14:03:54;;;;;;;3.47;3.33;;;;;;;0.54;81.08;102122.09;6129028;29;20203;-73
2021/01/17 14:06:58;;;;;;;2.80;2.60;;;;;;;0.50;81.63;102116.13;6130720;28;20207;-73
2021/01/17 14:10:01;;;;;;;3.47;3.07;;;;;;;0.63;81.00;102129.44;6134312;29;20214;-73
2021/01/17 14:13:05;;;;;;;3.53;3.07;;;;;;;0.51;81.29;102114.31;6140133;28;20719;-73
2021/01/17 14:16:08;;;;;;;2.57;2.47;;;;;;;0.51;82.28;102125.06;6133795;28;20218;-73
2021/01/17 14:19:13;;;;;;;3.13;2.93;;;;;;;0.52;81.91;102126.75;6135719;29;20629;-72
2021/01/17 14:22:16;;;;;;;2.90;2.80;;;;;;;0.58;81.89;102129.81;6137588;29;20211;-73
2021/01/17 14:25:20;;;;;;;2.50;2.40;;;;;;;0.62;81.39;102122.34;6136354;29;20529;-73
2021/01/17 14:28:24;;;;;;;2.57;2.47;;;;;;;0.62;81.28;102122.34;6131909;28;20216;-73
2021/01/17 14:31:35;;;;;;;2.83;2.70;;;;;;;0.57;82.43;102124.53;6135577;29;20279;-71